createdAt,value
2017-07-19T00:00:16.476Z,69.5
2017-07-19T00:01:16.517Z,70.17
2017-07-19T00:02:16.477Z,69.89
2017-07-19T00:03:16.419Z,70.17
2017-07-19T00:04:16.400Z,70.37
2017-07-19T00:05:16.088Z,70.07
2017-07-19T00:06:16.366Z,70.27
2017-07-19T00:07:16.359Z,70.43
2017-07-19T00:08:16.328Z,70.65
2017-07-19T00:09:16.011Z,70.84
2017-07-19T00:10:15.992Z,70.94
2017-07-19T00:11:16.270Z,71.04
2017-07-19T00:12:16.251Z,71.14
2017-07-19T00:13:16.236Z,71.14
2017-07-19T00:14:16.215Z,71.23
2017-07-19T00:15:16.196Z,71
2017-07-19T00:16:16.181Z,71.39
2017-07-19T00:17:16.158Z,71.67
2017-07-19T00:18:16.142Z,71.19
2017-07-19T00:19:16.134Z,71.39
2017-07-19T00:20:16.104Z,71.29
2017-07-19T00:21:15.790Z,71.33
2017-07-19T00:22:16.066Z,71.58
2017-07-19T00:23:16.048Z,71.39
2017-07-19T00:24:15.732Z,71.77
2017-07-19T00:25:16.012Z,71.87
2017-07-19T00:26:15.991Z,71.58
2017-07-19T00:27:15.977Z,71.96
2017-07-19T00:28:15.957Z,72.34
2017-07-19T00:29:15.936Z,71.96
2017-07-19T00:30:15.914Z,72.06
2017-07-19T00:31:15.601Z,72.44
2017-07-19T00:32:15.581Z,72.44
2017-07-19T00:33:15.862Z,72.73
2017-07-19T00:34:15.844Z,72.83
2017-07-19T00:35:15.528Z,72.64
2017-07-19T00:36:15.508Z,72.64
2017-07-19T00:37:15.794Z,72.44
2017-07-19T00:38:15.472Z,72.54
2017-07-19T00:39:15.747Z,73.31
2017-07-19T00:40:15.733Z,72.73
2017-07-19T00:41:15.707Z,73.69
2017-07-19T00:42:15.692Z,73.41
2017-07-19T00:43:15.674Z,73.31
2017-07-19T00:44:15.651Z,73.11
2017-07-19T00:45:15.631Z,72.92
2017-07-19T00:46:15.613Z,73.6
2017-07-19T00:47:15.598Z,73.21
2017-07-19T00:48:15.574Z,73.6
2017-07-19T00:49:15.262Z,73.5
2017-07-19T00:50:15.539Z,73.88
2017-07-19T00:51:15.517Z,73.98
2017-07-19T00:52:15.503Z,73.94
2017-07-19T00:53:15.479Z,73.79
2017-07-19T00:54:15.460Z,74.27
2017-07-19T00:55:15.456Z,74.04
2017-07-19T00:56:15.425Z,74.04
2017-07-19T00:57:15.407Z,74.23
2017-07-19T00:58:15.087Z,73.94
2017-07-19T00:59:15.371Z,74.13
2017-07-19T01:00:15.352Z,74.71
2017-07-19T01:01:15.033Z,74.43
2017-07-19T01:02:15.310Z,74.43
2017-07-19T01:03:15.290Z,74.71
2017-07-19T01:04:14.974Z,74.71
2017-07-19T01:05:14.955Z,74.62
2017-07-19T01:06:15.231Z,75.2
2017-07-19T01:07:15.212Z,75.2
2017-07-19T01:08:15.194Z,75.29
2017-07-19T01:09:15.174Z,75.48
2017-07-19T01:10:15.157Z,75.38
2017-07-19T01:11:15.137Z,75.29
2017-07-19T01:12:15.118Z,75.38
2017-07-19T01:13:15.096Z,75.57
2017-07-19T01:14:15.080Z,75.67
2017-07-19T01:15:15.057Z,76.25
2017-07-19T01:16:15.040Z,76.06
2017-07-19T01:17:15.025Z,76.44
2017-07-19T01:18:15.001Z,75.77
2017-07-19T01:19:14.979Z,76.15
2017-07-19T01:20:14.960Z,76.34
2017-07-19T01:21:15.103Z,76.44
2017-07-19T01:22:14.923Z,76.25
2017-07-19T01:23:14.906Z,76.15
2017-07-19T01:24:14.886Z,76.25
2017-07-19T01:25:14.865Z,76.4
2017-07-19T01:26:14.848Z,76.44
2017-07-19T01:27:14.827Z,76.64
2017-07-19T01:28:14.811Z,76.92
2017-07-19T01:29:14.787Z,76.82
2017-07-19T01:30:14.766Z,76.73
2017-07-19T01:31:14.752Z,76.79
2017-07-19T01:32:14.730Z,76.82
2017-07-19T01:33:14.709Z,76.73
2017-07-19T01:34:14.698Z,76.73
2017-07-19T01:35:14.670Z,76.92
2017-07-19T01:36:14.705Z,77.11
2017-07-19T01:37:14.633Z,76.92
2017-07-19T01:38:14.612Z,77.4
2017-07-19T01:39:14.595Z,77.59
2017-07-19T01:40:14.572Z,77.36
2017-07-19T01:41:14.553Z,77.56
2017-07-19T01:42:14.536Z,77.56
2017-07-19T01:43:14.527Z,77.17
2017-07-19T01:44:14.498Z,78.03
2017-07-19T01:45:14.180Z,77.65
2017-07-19T01:46:14.456Z,78.03
2017-07-19T01:47:14.437Z,77.94
2017-07-19T01:48:14.419Z,78.13
2017-07-19T01:49:14.400Z,78.52
2017-07-19T01:50:14.379Z,78.52
2017-07-19T01:51:14.363Z,78.42
2017-07-19T01:52:14.341Z,78.42
2017-07-19T01:53:14.324Z,78.23
2017-07-19T01:54:14.299Z,78.7
2017-07-19T01:55:14.289Z,78.61
2017-07-19T01:56:13.966Z,78.61
2017-07-19T01:57:14.242Z,79.09
2017-07-19T01:58:14.225Z,78.9
2017-07-19T01:59:13.908Z,78.8
2017-07-19T02:00:14.188Z,78.9
2017-07-19T02:01:13.870Z,79.09
2017-07-19T02:02:13.851Z,79.19
2017-07-19T02:03:14.125Z,78.8
2017-07-19T02:04:14.104Z,79.47
2017-07-19T02:05:14.085Z,79.19
2017-07-19T02:06:14.067Z,79.38
2017-07-19T02:07:14.047Z,79.57
2017-07-19T02:08:13.731Z,79.38
2017-07-19T02:09:14.012Z,79.28
2017-07-19T02:10:13.991Z,79.38
2017-07-19T02:11:13.968Z,79.96
2017-07-19T02:12:13.958Z,79.86
2017-07-19T02:13:13.926Z,79.76
2017-07-19T02:14:13.909Z,79.76
2017-07-19T02:15:13.889Z,79.57
2017-07-19T02:16:13.869Z,79.47
2017-07-19T02:17:13.854Z,79.76
2017-07-19T02:18:13.828Z,79.86
2017-07-19T02:19:13.811Z,79.96
2017-07-19T02:20:13.791Z,80.05
2017-07-19T02:21:13.774Z,80.3
2017-07-19T02:22:13.751Z,80.24
2017-07-19T02:23:13.731Z,80.4
2017-07-19T02:24:13.709Z,80.49
2017-07-19T02:25:13.688Z,80.01
2017-07-19T02:26:13.670Z,80.4
2017-07-19T02:27:13.647Z,80.3
2017-07-19T02:28:13.629Z,80.01
2017-07-19T02:29:13.613Z,80.3
2017-07-19T02:30:13.295Z,80.49
2017-07-19T02:31:13.571Z,80.58
2017-07-19T02:32:13.553Z,80.4
2017-07-19T02:33:13.533Z,80.3
2017-07-19T02:34:13.216Z,80.58
2017-07-19T02:35:13.491Z,80.68
2017-07-19T02:36:13.473Z,80.58
2017-07-19T02:37:13.452Z,80.68
2017-07-19T02:38:13.431Z,80.68
2017-07-19T02:39:13.426Z,80.68
2017-07-19T02:40:13.447Z,80.87
2017-07-19T02:41:13.373Z,80.58
2017-07-19T02:42:13.354Z,80.87
2017-07-19T02:43:13.332Z,80.58
2017-07-19T02:44:13.316Z,80.4
2017-07-19T02:45:13.002Z,80.78
2017-07-19T02:46:13.278Z,81.45
2017-07-19T02:47:13.255Z,81.26
2017-07-19T02:48:13.233Z,80.97
2017-07-19T02:49:13.215Z,81.07
2017-07-19T02:50:13.196Z,80.97
2017-07-19T02:51:13.171Z,81.07
2017-07-19T02:52:13.154Z,81.54
2017-07-19T02:53:13.135Z,81.35
2017-07-19T02:54:13.111Z,81.45
2017-07-19T02:55:13.093Z,81.84
2017-07-19T02:56:13.074Z,81.64
2017-07-19T02:57:13.054Z,81.74
2017-07-19T02:58:13.032Z,81.45
2017-07-19T02:59:13.014Z,81.93
2017-07-19T03:00:12.695Z,81.74
2017-07-19T03:01:12.679Z,82.41
2017-07-19T03:02:12.953Z,82.31
2017-07-19T03:03:12.942Z,81.93
2017-07-19T03:04:12.912Z,82.12
2017-07-19T03:05:12.895Z,82.03
2017-07-19T03:06:12.575Z,82.21
2017-07-19T03:07:12.553Z,82.03
2017-07-19T03:08:12.836Z,81.74
2017-07-19T03:09:12.516Z,82.21
2017-07-19T03:10:12.791Z,81.93
2017-07-19T03:11:12.773Z,82.12
2017-07-19T03:12:12.751Z,82.12
2017-07-19T03:13:12.731Z,82.79
2017-07-19T03:14:12.714Z,82.7
2017-07-19T03:15:12.689Z,82.6
2017-07-19T03:16:12.677Z,82.6
2017-07-19T03:17:12.653Z,82.51
2017-07-19T03:18:12.630Z,82.37
2017-07-19T03:19:12.616Z,82.6
2017-07-19T03:20:12.592Z,82.31
2017-07-19T03:21:12.318Z,82.75
2017-07-19T03:22:12.555Z,82.75
2017-07-19T03:23:12.530Z,82.89
2017-07-19T03:24:12.514Z,82.98
2017-07-19T03:25:12.499Z,83.08
2017-07-19T03:26:12.471Z,83.27
2017-07-19T03:27:12.451Z,82.85
2017-07-19T03:28:12.432Z,82.75
2017-07-19T03:29:12.420Z,82.94
2017-07-19T03:30:12.388Z,83.14
2017-07-19T03:31:12.372Z,82.94
2017-07-19T03:32:12.351Z,83.42
2017-07-19T03:33:12.328Z,83.56
2017-07-19T03:34:12.314Z,83.33
2017-07-19T03:35:12.289Z,83.33
2017-07-19T03:36:12.272Z,83.33
2017-07-19T03:37:11.955Z,83.23
2017-07-19T03:38:12.240Z,83.14
2017-07-19T03:39:12.211Z,83.42
2017-07-19T03:40:12.197Z,83.52
2017-07-19T03:41:12.171Z,83.52
2017-07-19T03:42:12.157Z,83.52
2017-07-19T03:43:12.129Z,83.42
2017-07-19T03:44:11.817Z,83.52
2017-07-19T03:45:12.087Z,83.61
2017-07-19T03:46:12.077Z,83.71
2017-07-19T03:47:12.044Z,83.91
2017-07-19T03:48:12.031Z,84
2017-07-19T03:49:12.014Z,84
2017-07-19T03:50:12.036Z,83.91
2017-07-19T03:51:11.966Z,83.91
2017-07-19T03:52:11.951Z,83.71
2017-07-19T03:53:11.981Z,83.81
2017-07-19T03:54:11.929Z,83.81
2017-07-19T03:55:11.885Z,84.28
2017-07-19T03:56:11.867Z,83.91
2017-07-19T03:57:11.857Z,84.19
2017-07-19T03:58:11.824Z,84.38
2017-07-19T03:59:11.803Z,84.28
2017-07-19T04:00:11.786Z,84.42
2017-07-19T04:01:11.768Z,83.81
2017-07-19T04:02:11.745Z,84.38
2017-07-19T04:03:11.723Z,84.19
2017-07-19T04:04:11.704Z,84.19
2017-07-19T04:05:11.687Z,83.71
2017-07-19T04:06:11.663Z,84.19
2017-07-19T04:07:11.647Z,84.28
2017-07-19T04:08:11.625Z,84.48
2017-07-19T04:09:11.606Z,84.23
2017-07-19T04:10:11.585Z,83.42
2017-07-19T04:11:11.573Z,84.28
2017-07-19T04:12:11.249Z,83.61
2017-07-19T04:13:11.523Z,83.52
2017-07-19T04:14:11.504Z,83.56
2017-07-19T04:15:11.487Z,84.23
2017-07-19T04:16:11.463Z,84.33
2017-07-19T04:17:11.447Z,83.75
2017-07-19T04:18:11.424Z,83.47
2017-07-19T04:19:11.108Z,84.33
2017-07-19T04:20:11.386Z,83.56
2017-07-19T04:21:11.363Z,83.85
2017-07-19T04:22:11.345Z,84.33
2017-07-19T04:23:11.326Z,84.33
2017-07-19T04:24:11.306Z,83.85
2017-07-19T04:25:11.285Z,84.33
2017-07-19T04:26:11.268Z,84.23
2017-07-19T04:27:11.245Z,83.85
2017-07-19T04:28:11.224Z,83.75
2017-07-19T04:29:11.209Z,83.56
2017-07-19T04:30:10.888Z,84.04
2017-07-19T04:31:11.172Z,83.85
2017-07-19T04:32:10.849Z,84.14
2017-07-19T04:33:11.138Z,83.94
2017-07-19T04:34:11.109Z,83.65
2017-07-19T04:35:11.088Z,83.56
2017-07-19T04:36:11.069Z,83.56
2017-07-19T04:37:10.751Z,83.47
2017-07-19T04:38:11.062Z,83.56
2017-07-19T04:39:11.010Z,83.27
2017-07-19T04:40:10.990Z,83.37
2017-07-19T04:41:10.968Z,83.65
2017-07-19T04:42:10.955Z,83.56
2017-07-19T04:43:10.931Z,82.79
2017-07-19T04:44:10.616Z,83.31
2017-07-19T04:45:10.890Z,82.84
2017-07-19T04:46:10.872Z,82.93
2017-07-19T04:47:10.864Z,82.93
2017-07-19T04:48:10.833Z,82.64
2017-07-19T04:49:10.815Z,82.74
2017-07-19T04:50:10.796Z,82.64
2017-07-19T04:51:10.478Z,82.54
2017-07-19T04:52:10.760Z,82.54
2017-07-19T04:53:10.738Z,82.45
2017-07-19T04:54:10.721Z,82.45
2017-07-19T04:55:10.700Z,82.45
2017-07-19T04:56:10.686Z,82.07
2017-07-19T04:57:10.364Z,82.26
2017-07-19T04:58:10.642Z,82.35
2017-07-19T04:59:10.626Z,82.16
2017-07-19T05:00:10.603Z,81.97
2017-07-19T05:01:10.289Z,82.3
2017-07-19T05:02:10.567Z,81.82
2017-07-19T05:03:10.563Z,81.43
2017-07-19T05:04:10.542Z,81.49
2017-07-19T05:05:10.511Z,81.72
2017-07-19T05:06:10.493Z,81.24
2017-07-19T05:07:10.472Z,81.24
2017-07-19T05:08:10.451Z,81.63
2017-07-19T05:09:10.435Z,80.86
2017-07-19T05:10:10.414Z,81.15
2017-07-19T05:11:10.395Z,81.53
2017-07-19T05:12:10.378Z,80.57
2017-07-19T05:13:10.365Z,80.86
2017-07-19T05:14:10.342Z,80.86
2017-07-19T05:15:10.027Z,80.66
2017-07-19T05:16:10.307Z,80.57
2017-07-19T05:17:10.288Z,80.22
2017-07-19T05:18:10.270Z,80.13
2017-07-19T05:19:10.252Z,80.51
2017-07-19T05:20:09.935Z,80.42
2017-07-19T05:21:09.917Z,80.22
2017-07-19T05:22:09.899Z,80.04
2017-07-19T05:23:10.178Z,80.04
2017-07-19T05:24:10.160Z,79.46
2017-07-19T05:25:10.143Z,79.75
2017-07-19T05:26:09.824Z,79.21
2017-07-19T05:27:09.810Z,79.3
2017-07-19T05:28:10.086Z,79.02
2017-07-19T05:29:10.070Z,78.53
2017-07-19T05:30:10.053Z,78.34
2017-07-19T05:31:10.036Z,78
2017-07-19T05:32:10.016Z,77.9
2017-07-19T05:33:09.734Z,77.71
2017-07-19T05:34:09.983Z,77.33
2017-07-19T05:35:09.969Z,76.75
2017-07-19T05:36:09.952Z,76.88
2017-07-19T05:37:09.930Z,76.4
2017-07-19T05:38:09.919Z,76.21
2017-07-19T05:39:09.603Z,76.11
2017-07-19T05:40:09.884Z,76.11
2017-07-19T05:41:09.863Z,76.11
2017-07-19T05:42:09.552Z,75.63
2017-07-19T05:43:09.833Z,75.57
2017-07-19T05:44:09.522Z,75.09
2017-07-19T05:45:09.799Z,74.41
2017-07-19T05:46:09.789Z,74.9
2017-07-19T05:47:09.779Z,74.8
2017-07-19T05:48:09.451Z,74.61
2017-07-19T05:49:09.732Z,74.22
2017-07-19T05:50:09.715Z,74.51
2017-07-19T05:51:09.700Z,73.94
2017-07-19T05:52:09.683Z,74.13
2017-07-19T05:53:09.672Z,73.68
2017-07-19T05:54:09.358Z,73.2
2017-07-19T05:55:09.676Z,73.39
2017-07-19T05:56:09.618Z,72.63
2017-07-19T05:57:09.605Z,72.63
2017-07-19T05:58:09.597Z,72.66
2017-07-19T05:59:09.575Z,72.66
2017-07-19T06:00:09.555Z,72.08
2017-07-19T06:01:09.544Z,71.89
2017-07-19T06:02:09.524Z,71.79
2017-07-19T06:03:09.511Z,71.5
2017-07-19T06:04:09.503Z,71.41
2017-07-19T06:05:09.515Z,71.25
2017-07-19T06:06:09.188Z,70.86
2017-07-19T06:07:09.450Z,70.76
2017-07-19T06:08:09.440Z,70.67
2017-07-19T06:09:09.429Z,70.19
2017-07-19T06:10:09.405Z,70.19
2017-07-19T06:11:09.389Z,69.9
2017-07-19T06:12:09.487Z,69.71
2017-07-19T06:13:09.357Z,69.74
2017-07-19T06:14:09.365Z,69.84
2017-07-19T06:15:09.950Z,69.35
2017-07-19T06:16:09.993Z,68.97
2017-07-19T06:17:09.829Z,68.97
2017-07-19T06:18:09.489Z,69.07
2017-07-19T06:19:09.715Z,68.97
2017-07-19T06:20:09.268Z,68.77
2017-07-19T06:21:08.949Z,68.39
2017-07-19T06:22:08.932Z,68.43
2017-07-19T06:23:09.217Z,68.04
2017-07-19T06:24:09.220Z,67.94
2017-07-19T06:25:09.186Z,67.65
2017-07-19T06:26:09.176Z,68.13
2017-07-19T06:27:09.161Z,67.94
2017-07-19T06:28:09.145Z,67.36
2017-07-19T06:29:09.134Z,67.36
2017-07-19T06:30:09.119Z,67.17
2017-07-19T06:31:09.105Z,67.36
2017-07-19T06:32:09.096Z,67.36
2017-07-19T06:33:09.081Z,66.97
2017-07-19T06:34:08.778Z,67.3
2017-07-19T06:35:09.170Z,66.63
2017-07-19T06:36:08.745Z,66.43
2017-07-19T06:37:09.029Z,66.14
2017-07-19T06:38:08.723Z,65.88
2017-07-19T06:39:09.006Z,65.69
2017-07-19T06:40:08.993Z,65.2
2017-07-19T06:41:08.984Z,65.4
2017-07-19T06:42:08.972Z,65.11
2017-07-19T06:43:08.957Z,65.11
2017-07-19T06:44:08.943Z,65.11
2017-07-19T06:45:08.933Z,65.11
2017-07-19T06:46:08.920Z,64.82
2017-07-19T06:47:08.908Z,64.66
2017-07-19T06:48:08.901Z,64.76
2017-07-19T06:49:08.888Z,63.98
2017-07-19T06:50:08.616Z,64.27
2017-07-19T06:51:08.871Z,64.21
2017-07-19T06:52:08.691Z,63.89
2017-07-19T06:53:08.844Z,63.79
2017-07-19T06:54:08.830Z,64.27
2017-07-19T06:55:08.819Z,63.89
2017-07-19T06:56:08.805Z,63.82
2017-07-19T06:57:08.798Z,63.63
2017-07-19T06:58:08.791Z,63.73
2017-07-19T06:59:08.776Z,63.73
2017-07-19T07:00:08.466Z,63.43
2017-07-19T07:01:08.751Z,63.53
2017-07-19T07:02:08.744Z,63.43
2017-07-19T07:03:08.729Z,63.63
2017-07-19T07:04:08.862Z,63.73
2017-07-19T07:05:08.737Z,63.05
2017-07-19T07:06:08.700Z,62.76
2017-07-19T07:07:08.691Z,63.18
2017-07-19T07:08:08.383Z,62.88
2017-07-19T07:09:08.667Z,62.5
2017-07-19T07:10:08.361Z,61.92
2017-07-19T07:11:08.653Z,62.21
2017-07-19T07:12:08.635Z,62.24
2017-07-19T07:13:08.331Z,61.66
2017-07-19T07:14:08.321Z,61.56
2017-07-19T07:15:08.610Z,61.46
2017-07-19T07:16:08.598Z,61.27
2017-07-19T07:17:08.294Z,61.46
2017-07-19T07:18:08.398Z,60.98
2017-07-19T07:19:08.569Z,60.91
2017-07-19T07:20:08.560Z,61.01
2017-07-19T07:21:08.550Z,60.91
2017-07-19T07:22:08.803Z,60.43
2017-07-19T07:23:08.337Z,60.91
2017-07-19T07:24:08.519Z,60.07
2017-07-19T07:25:08.511Z,60.17
2017-07-19T07:26:08.505Z,59.97
2017-07-19T07:27:08.493Z,59.97
2017-07-19T07:28:08.187Z,59.97
2017-07-19T07:29:08.478Z,59.39
2017-07-19T07:30:08.517Z,59.33
2017-07-19T07:31:08.460Z,58.84
2017-07-19T07:32:08.450Z,58.36
2017-07-19T07:33:08.440Z,58.45
2017-07-19T07:34:08.439Z,58.09
2017-07-19T07:35:08.426Z,58.29
2017-07-19T07:36:08.415Z,58.09
2017-07-19T07:37:08.409Z,57.15
2017-07-19T07:38:08.397Z,57.34
2017-07-19T07:39:08.406Z,56.67
2017-07-19T07:40:08.388Z,56.57
2017-07-19T07:41:08.377Z,56.98
2017-07-19T07:42:08.367Z,56.11
2017-07-19T07:43:08.360Z,55.73
2017-07-19T07:44:08.350Z,55.43
2017-07-19T07:45:08.046Z,55.85
2017-07-19T07:46:08.335Z,54.68
2017-07-19T07:47:08.325Z,54.9
2017-07-19T07:48:08.321Z,54.71
2017-07-19T07:49:08.315Z,53.83
2017-07-19T07:50:08.307Z,54.03
2017-07-19T07:51:08.299Z,53.35
2017-07-19T07:52:08.298Z,53.38
2017-07-19T07:53:08.310Z,53.08
2017-07-19T07:54:07.982Z,52.89
2017-07-19T07:55:08.274Z,52.53
2017-07-19T07:56:08.266Z,52.62
2017-07-19T07:57:07.965Z,52.23
2017-07-19T07:58:08.252Z,51.75
2017-07-19T07:59:08.246Z,51.36
2017-07-19T08:00:08.239Z,51.26
2017-07-19T08:01:08.238Z,51.65
2017-07-19T08:02:08.230Z,51.09
2017-07-19T08:03:08.222Z,50.6
2017-07-19T08:04:07.918Z,50.12
2017-07-19T08:05:08.215Z,50.31
2017-07-19T08:06:08.209Z,49.85
2017-07-19T08:07:08.199Z,49.95
2017-07-19T08:08:08.199Z,49.56
2017-07-19T08:09:08.188Z,49.58
2017-07-19T08:10:08.184Z,48.71
2017-07-19T08:11:08.183Z,49.61
2017-07-19T08:12:08.324Z,48.54
2017-07-19T08:13:08.175Z,48.63
2017-07-19T08:14:08.171Z,47.88
2017-07-19T08:15:08.160Z,47.49
2017-07-19T08:16:08.159Z,47.19
2017-07-19T08:17:08.304Z,47.12
2017-07-19T08:18:08.147Z,46.04
2017-07-19T08:19:08.167Z,45.97
2017-07-19T08:20:08.139Z,45.21
2017-07-19T08:21:08.136Z,44.43
2017-07-19T08:22:08.137Z,43.96
2017-07-19T08:23:07.834Z,43.18
2017-07-19T08:24:08.128Z,42.91
2017-07-19T08:25:08.127Z,42.64
2017-07-19T08:26:08.120Z,41.86
2017-07-19T08:27:08.119Z,41.36
2017-07-19T08:28:08.121Z,40.48
2017-07-19T08:29:08.112Z,40.09
2017-07-19T08:30:08.113Z,40.11
2017-07-19T08:31:08.107Z,39.33
2017-07-19T08:32:08.104Z,39.33
2017-07-19T08:33:08.099Z,38.76
2017-07-19T08:34:07.800Z,38.84
2017-07-19T08:35:08.098Z,38.84
2017-07-19T08:36:08.094Z,38.26
2017-07-19T08:37:08.090Z,38.26
2017-07-19T08:38:08.092Z,37.88
2017-07-19T08:39:08.087Z,37.67
2017-07-19T08:40:08.083Z,37.57
2017-07-19T08:41:08.082Z,37.57
2017-07-19T08:42:08.086Z,37.47
2017-07-19T08:43:08.078Z,37.37
2017-07-19T08:44:08.077Z,37.08
2017-07-19T08:45:08.075Z,36.71
2017-07-19T08:46:08.076Z,36.51
2017-07-19T08:47:08.077Z,36.33
2017-07-19T08:48:08.079Z,36.04
2017-07-19T08:49:08.066Z,35.75
2017-07-19T08:50:08.126Z,35.47
2017-07-19T08:51:08.062Z,35.47
2017-07-19T08:52:08.064Z,35.57
2017-07-19T08:53:08.093Z,35.17
2017-07-19T08:54:08.057Z,35.08
2017-07-19T08:55:08.056Z,35.57
2017-07-19T08:56:08.057Z,35.08
2017-07-19T08:57:08.057Z,35.17
2017-07-19T08:58:08.050Z,34.98
2017-07-19T08:59:08.054Z,34.41
2017-07-19T09:00:08.047Z,34.31
2017-07-19T09:01:08.045Z,34.11
2017-07-19T09:02:08.044Z,34.23
2017-07-19T09:03:08.043Z,34.41
2017-07-19T09:04:08.045Z,34.7
2017-07-19T09:05:08.042Z,34.41
2017-07-19T09:06:08.041Z,34.59
2017-07-19T09:07:08.044Z,34.69
2017-07-19T09:08:08.034Z,34.78
2017-07-19T09:09:08.031Z,35.25
2017-07-19T09:10:08.035Z,35.25
2017-07-19T09:11:08.031Z,34.98
2017-07-19T09:12:08.216Z,34.59
2017-07-19T09:13:08.027Z,34.59
2017-07-19T09:14:08.072Z,34.49
2017-07-19T09:15:08.022Z,34.2
2017-07-19T09:16:08.018Z,34.3
2017-07-19T09:17:08.020Z,34.49
2017-07-19T09:18:08.012Z,34.11
2017-07-19T09:19:08.013Z,33.82
2017-07-19T09:20:08.016Z,33.72
2017-07-19T09:21:08.008Z,33.36
2017-07-19T09:22:09.135Z,32.97
2017-07-19T09:23:08.281Z,32.87
2017-07-19T09:24:08.288Z,32.4
2017-07-19T09:25:07.947Z,32.5
2017-07-19T09:26:08.273Z,32.01
2017-07-19T09:27:08.268Z,32.2
2017-07-19T09:28:08.754Z,32.2
2017-07-19T09:29:08.022Z,31.92
2017-07-19T09:30:07.991Z,32.02
2017-07-19T09:31:07.820Z,31.23
2017-07-19T09:32:07.990Z,31.05
2017-07-19T09:33:07.985Z,30.47
2017-07-19T09:34:08.020Z,30.4
2017-07-19T09:35:07.991Z,30
2017-07-19T09:36:07.983Z,29.92
2017-07-19T09:37:07.984Z,29.92
2017-07-19T09:38:07.981Z,29.82
2017-07-19T09:39:07.785Z,29.72
2017-07-19T09:40:07.983Z,29.05
2017-07-19T09:41:07.986Z,28.77
2017-07-19T09:42:07.719Z,28.19
2017-07-19T09:43:07.983Z,28
2017-07-19T09:44:07.982Z,27.62
2017-07-19T09:45:07.984Z,27.44
2017-07-19T09:46:08.005Z,27.24
2017-07-19T09:47:07.985Z,26.94
2017-07-19T09:48:07.982Z,27.04
2017-07-19T09:49:07.984Z,27.04
2017-07-19T09:50:07.986Z,27.34
2017-07-19T09:51:07.985Z,26.84
2017-07-19T09:52:07.984Z,26.75
2017-07-19T09:53:07.988Z,26.66
2017-07-19T09:54:07.986Z,26.84
2017-07-19T09:55:07.996Z,26.56
2017-07-19T09:56:07.987Z,26.45
2017-07-19T09:57:07.994Z,26.17
2017-07-19T09:58:07.995Z,25.87
2017-07-19T09:59:07.996Z,25.59
2017-07-19T10:00:07.994Z,25.68
2017-07-19T10:01:07.997Z,24.81
2017-07-19T10:02:08.001Z,24.82
2017-07-19T10:03:08.000Z,24.54
2017-07-19T10:04:07.707Z,24.44
2017-07-19T10:05:08.001Z,23.66
2017-07-19T10:06:08.015Z,23.77
2017-07-19T10:07:08.005Z,23.75
2017-07-19T10:08:07.718Z,23.66
2017-07-19T10:09:08.011Z,23.56
2017-07-19T10:10:08.013Z,23.66
2017-07-19T10:11:08.013Z,23.85
2017-07-19T10:12:08.469Z,23.66
2017-07-19T10:13:08.544Z,23.66
2017-07-19T10:14:08.021Z,23.56
2017-07-19T10:15:08.300Z,23.94
2017-07-19T10:16:08.019Z,24.13
2017-07-19T10:17:08.022Z,24.13
2017-07-19T10:18:08.030Z,24.22
2017-07-19T10:19:08.027Z,24.13
2017-07-19T10:20:07.738Z,24.03
2017-07-19T10:21:08.028Z,23.44
2017-07-19T10:22:08.034Z,23.73
2017-07-19T10:23:08.121Z,23.73
2017-07-19T10:24:08.038Z,23.63
2017-07-19T10:25:08.033Z,23.54
2017-07-19T10:26:08.036Z,23.05
2017-07-19T10:27:08.046Z,22.67
2017-07-19T10:28:08.041Z,22.28
2017-07-19T10:29:08.174Z,22.29
2017-07-19T10:30:08.046Z,22
2017-07-19T10:31:08.044Z,21.8
2017-07-19T10:32:08.044Z,22.19
2017-07-19T10:33:08.047Z,22
2017-07-19T10:34:08.055Z,22.27
2017-07-19T10:35:08.054Z,22.56
2017-07-19T10:36:08.052Z,23.44
2017-07-19T10:37:08.056Z,23.72
2017-07-19T10:38:08.058Z,23.81
2017-07-19T10:39:08.058Z,23.91
2017-07-19T10:40:07.821Z,23.71
2017-07-19T10:41:08.058Z,23.51
2017-07-19T10:42:08.061Z,22.84
2017-07-19T10:43:08.061Z,22.26
2017-07-19T10:44:08.061Z,22.27
2017-07-19T10:45:08.066Z,21.78
2017-07-19T10:46:08.063Z,21.3
2017-07-19T10:47:08.077Z,20.72
2017-07-19T10:48:08.065Z,21.32
2017-07-19T10:49:08.069Z,21.61
2017-07-19T10:50:08.069Z,21.4
2017-07-19T10:51:08.069Z,21.6
2017-07-19T10:52:08.073Z,21.81
2017-07-19T10:53:08.072Z,21.5
2017-07-19T10:54:08.076Z,21.5
2017-07-19T10:55:08.172Z,21.78
2017-07-19T10:56:08.077Z,21.59
2017-07-19T10:57:08.083Z,21.59
2017-07-19T10:58:08.081Z,21.29
2017-07-19T10:59:08.144Z,20.79
2017-07-19T11:00:08.086Z,21.09
2017-07-19T11:01:08.091Z,20.51
2017-07-19T11:02:08.088Z,20.42
2017-07-19T11:03:08.094Z,20.13
2017-07-19T11:04:08.098Z,20.14
2017-07-19T11:05:08.100Z,20.14
2017-07-19T11:06:07.804Z,20.04
2017-07-19T11:07:08.111Z,19.94
2017-07-19T11:08:08.106Z,20.04
2017-07-19T11:09:08.107Z,20.03
2017-07-19T11:10:08.114Z,20.14
2017-07-19T11:11:08.112Z,19.93
2017-07-19T11:12:08.116Z,20.03
2017-07-19T11:13:08.121Z,20.03
2017-07-19T11:14:07.826Z,20.03
2017-07-19T11:15:08.131Z,19.94
2017-07-19T11:16:07.878Z,19.94
2017-07-19T11:17:08.130Z,19.75
2017-07-19T11:18:08.134Z,19.65
2017-07-19T11:19:08.139Z,19.07
2017-07-19T11:20:07.873Z,18.97
2017-07-19T11:21:07.849Z,19.46
2017-07-19T11:22:08.146Z,18.97
2017-07-19T11:23:08.152Z,19.46
2017-07-19T11:24:08.156Z,18.96
2017-07-19T11:25:07.860Z,19.37
2017-07-19T11:26:07.861Z,19.07
2017-07-19T11:27:08.164Z,18.68
2017-07-19T11:28:08.269Z,18.98
2017-07-19T11:29:08.166Z,19.08
2017-07-19T11:30:08.172Z,19.18
2017-07-19T11:31:08.178Z,19.17
2017-07-19T11:32:08.182Z,18.97
2017-07-19T11:33:08.184Z,19.35
2017-07-19T11:34:07.891Z,19.26
2017-07-19T11:35:08.192Z,19.05
2017-07-19T11:36:07.897Z,18.85
2017-07-19T11:37:08.197Z,19.54
2017-07-19T11:38:08.210Z,19.34
2017-07-19T11:39:08.203Z,19.24
2017-07-19T11:40:08.217Z,19.34
2017-07-19T11:41:08.217Z,19.34
2017-07-19T11:42:08.213Z,19.15
2017-07-19T11:43:08.218Z,18.75
2017-07-19T11:44:08.227Z,18.85
2017-07-19T11:45:08.223Z,18.66
2017-07-19T11:46:08.226Z,18.56
2017-07-19T11:47:08.232Z,18.46
2017-07-19T11:48:07.940Z,18.66
2017-07-19T11:49:07.943Z,19.15
2017-07-19T11:50:08.238Z,19.05
2017-07-19T11:51:08.249Z,19.24
2017-07-19T11:52:08.250Z,18.94
2017-07-19T11:53:08.256Z,18.84
2017-07-19T11:54:08.258Z,19.34
2017-07-19T11:55:08.262Z,19.14
2017-07-19T11:56:08.285Z,19.14
2017-07-19T11:57:08.269Z,19.04
2017-07-19T11:58:07.988Z,19.04
2017-07-19T11:59:08.277Z,18.54
2017-07-19T12:00:08.277Z,18.35
2017-07-19T12:01:07.984Z,18.26
2017-07-19T12:02:08.291Z,18.35
2017-07-19T12:03:08.286Z,18.26
2017-07-19T12:04:08.294Z,18.35
2017-07-19T12:05:08.296Z,18.26
2017-07-19T12:06:08.297Z,18.45
2017-07-19T12:07:08.301Z,18.35
2017-07-19T12:08:08.306Z,18.35
2017-07-19T12:09:08.161Z,18.35
2017-07-19T12:10:08.433Z,18.55
2017-07-19T12:11:09.151Z,18.65
2017-07-19T12:12:09.489Z,18.44
2017-07-19T12:13:08.537Z,18.54
2017-07-19T12:14:08.342Z,18.35
2017-07-19T12:15:08.802Z,18.35
2017-07-19T12:16:08.091Z,18.44
2017-07-19T12:17:08.548Z,18.44
2017-07-19T12:18:08.487Z,18.05
2017-07-19T12:19:08.057Z,18.15
2017-07-19T12:20:08.096Z,18.63
2017-07-19T12:21:08.370Z,18.13
2017-07-19T12:22:08.351Z,18.03
2017-07-19T12:23:08.354Z,17.83
2017-07-19T12:24:08.360Z,17.93
2017-07-19T12:25:08.368Z,17.73
2017-07-19T12:26:08.365Z,17.44
2017-07-19T12:27:08.367Z,17.54
2017-07-19T12:28:08.118Z,17.54
2017-07-19T12:29:08.384Z,17.65
2017-07-19T12:30:08.392Z,17.35
2017-07-19T12:31:08.386Z,17.35
2017-07-19T12:32:08.392Z,17.14
2017-07-19T12:33:08.396Z,17.35
2017-07-19T12:34:08.410Z,17.54
2017-07-19T12:35:08.399Z,17.65
2017-07-19T12:36:08.399Z,17.93
2017-07-19T12:37:08.406Z,18.42
2017-07-19T12:38:08.403Z,18.8
2017-07-19T12:39:08.409Z,18.99
2017-07-19T12:40:08.408Z,19.18
2017-07-19T12:41:08.416Z,19.77
2017-07-19T12:42:08.417Z,19.67
2017-07-19T12:43:08.415Z,19.57
2017-07-19T12:44:08.421Z,19.85
2017-07-19T12:45:08.428Z,19.76
2017-07-19T12:46:08.425Z,19.56
2017-07-19T12:47:08.450Z,19.85
2017-07-19T12:48:08.421Z,19.66
2017-07-19T12:49:08.429Z,19.17
2017-07-19T12:50:08.428Z,18.88
2017-07-19T12:51:08.429Z,18.39
2017-07-19T12:52:08.441Z,18.4
2017-07-19T12:53:08.436Z,18.3
2017-07-19T12:54:08.439Z,18.31
2017-07-19T12:55:08.440Z,18.21